Time;durP1;ratioP1;P1;durP2;ratioP2;P2;SDS_P1;SDS_P2;PMS_P1;PMS_P2;Temp;Humidity;BMP_temperature;BMP_pressure;BME280_temperature;BME280_humidity;BME280_pressure;Samples;Min_cycle;Max_cycle;Signal;HPM_P1;HPM_P2
2022/10/21 00:00:37;;;;;;;22.23;11.57;;;;;;;13.44;100.00;100606.75;6160278;23;20435;-86
2022/10/21 00:03:03;;;;;;;23.58;10.90;;;;;;;13.44;100.00;100606.75;6209401;23;20021;-86
2022/10/21 00:05:29;;;;;;;22.73;10.83;;;;;;;13.42;100.00;100605.34;6189836;23;20015;-86
2022/10/21 00:07:55;;;;;;;19.75;11.40;;;;;;;13.42;100.00;100608.91;6216441;23;20415;-86
2022/10/21 00:10:20;;;;;;;23.75;12.55;;;;;;;13.41;100.00;100606.44;6165313;23;20099;-85
2022/10/21 00:12:45;;;;;;;19.07;10.97;;;;;;;13.37;100.00;100599.81;6165796;23;20090;-86
2022/10/21 00:15:11;;;;;;;23.43;12.93;;;;;;;13.39;100.00;100609.41;6140014;23;20012;-86
2022/10/21 00:17:42;;;;;;;20.75;11.57;;;;;;;13.38;100.00;100605.00;6189842;23;20019;-86
2022/10/21 00:20:09;;;;;;;19.25;12.05;;;;;;;13.37;100.00;100603.34;6216450;23;20009;-86
2022/10/21 00:22:35;;;;;;;21.07;11.97;;;;;;;13.32;100.00;100586.88;6165255;23;20435;-86
2022/10/21 00:25:00;;;;;;;23.38;11.98;;;;;;;13.39;100.00;100592.19;6189743;23;20004;-86
2022/10/21 00:27:26;;;;;;;18.63;11.47;;;;;;;13.37;100.00;100580.72;6189798;23;20005;-85
2022/10/21 00:29:54;;;;;;;22.07;12.77;;;;;;;13.37;100.00;100570.66;6216029;23;20008;-86
2022/10/21 00:32:20;;;;;;;21.38;12.32;;;;;;;13.35;100.00;100575.53;6164266;23;20082;-86
2022/10/21 00:34:46;;;;;;;21.33;12.13;;;;;;;13.40;100.00;100578.34;6216200;23;20473;-86
2022/10/21 00:37:16;;;;;;;23.05;12.00;;;;;;;13.40;100.00;100582.97;6216148;23;20423;-85
2022/10/21 00:39:42;;;;;;;21.95;11.80;;;;;;;13.31;100.00;100575.13;6217107;23;20004;-85
2022/10/21 00:42:15;;;;;;;18.83;11.88;;;;;;;13.38;100.00;100590.56;6189422;23;20012;-85
2022/10/21 00:44:43;;;;;;;23.60;12.77;;;;;;;13.41;100.00;100588.16;6215999;23;20001;-86
2022/10/21 00:47:16;;;;;;;27.05;12.65;;;;;;;13.35;100.00;100585.59;6215838;23;20063;-86
2022/10/21 00:50:03;;;;;;;19.90;12.15;;;;;;;13.36;100.00;100581.78;6189682;23;20000;-85
2022/10/21 00:52:32;;;;;;;22.98;11.70;;;;;;;13.36;100.00;100582.63;6189550;23;20026;-85
2022/10/21 00:55:01;;;;;;;27.08;12.25;;;;;;;13.35;100.00;100569.25;6189398;23;20012;-85
2022/10/21 00:57:33;;;;;;;19.93;11.83;;;;;;;13.38;100.00;100575.03;6189551;23;20008;-86
2022/10/21 01:00:00;;;;;;;24.10;12.57;;;;;;;13.28;100.00;100564.72;6189603;23;20377;-86
2022/10/21 01:02:28;;;;;;;20.65;12.23;;;;;;;13.26;100.00;100571.50;6182057;23;20016;-86
2022/10/21 01:04:58;;;;;;;24.45;13.07;;;;;;;13.24;100.00;100562.72;6189539;23;20063;-86
2022/10/21 01:07:24;;;;;;;24.02;12.25;;;;;;;13.22;100.00;100556.69;6189734;23;20096;-86
2022/10/21 01:09:49;;;;;;;24.53;12.17;;;;;;;13.16;100.00;100551.09;6189575;23;20005;-86
2022/10/21 01:12:50;;;;;;;25.10;13.23;;;;;;;13.19;100.00;100560.72;6164802;23;20327;-86
2022/10/21 01:15:24;;;;;;;28.73;12.30;;;;;;;13.21;100.00;100555.03;6189598;23;20013;-85
2022/10/21 01:18:02;;;;;;;21.53;12.40;;;;;;;13.13;100.00;100545.31;6189533;23;20012;-85
2022/10/21 01:20:43;;;;;;;23.90;12.98;;;;;;;13.16;100.00;100551.09;6189513;23;20005;-86
2022/10/21 01:23:38;;;;;;;23.25;11.88;;;;;;;13.09;100.00;100546.88;6189488;23;20004;-86
2022/10/21 01:26:24;;;;;;;24.35;12.23;;;;;;;13.02;100.00;100540.72;6188727;23;20012;-86
2022/10/21 01:29:15;;;;;;;25.35;12.05;;;;;;;12.99;100.00;100531.13;6189677;23;20012;-86
2022/10/21 01:32:18;;;;;;;24.90;11.80;;;;;;;12.96;100.00;100534.31;6216191;23;20092;-85
2022/10/21 01:34:49;;;;;;;23.50;12.27;;;;;;;12.94;100.00;100531.84;6190363;23;20035;-85
2022/10/21 01:37:27;;;;;;;21.25;11.60;;;;;;;12.90;100.00;100524.41;6189868;23;20095;-85
2022/10/21 01:39:58;;;;;;;23.83;11.95;;;;;;;12.78;100.00;100500.75;6216080;23;20052;-86
2022/10/21 01:42:47;;;;;;;24.40;12.48;;;;;;;12.81;100.00;100521.22;6188946;23;20166;-86
2022/10/21 01:45:20;;;;;;;23.37;11.27;;;;;;;12.79;100.00;100509.75;6215695;23;20008;-85
2022/10/21 01:47:53;;;;;;;25.17;12.65;;;;;;;12.75;100.00;100503.94;6189207;23;20008;-86
2022/10/21 01:50:24;;;;;;;20.50;12.15;;;;;;;12.68;100.00;100495.09;6190202;23;20009;-86
2022/10/21 01:52:56;;;;;;;23.88;12.07;;;;;;;12.67;100.00;100498.88;6190899;23;20387;-85
2022/10/21 01:55:23;;;;;;;21.83;12.35;;;;;;;12.63;100.00;100490.31;6191156;23;20009;-86
2022/10/21 01:57:53;;;;;;;24.13;12.50;;;;;;;12.60;100.00;100492.72;6191121;23;20095;-85
2022/10/21 02:00:19;;;;;;;25.60;12.95;;;;;;;12.68;100.00;100494.22;6191031;23;20067;-85
2022/10/21 02:02:47;;;;;;;25.67;12.80;;;;;;;12.61;100.00;100487.03;6190802;23;20024;-86
2022/10/21 02:05:17;;;;;;;19.52;11.70;;;;;;;12.65;100.00;100490.09;6191149;23;20019;-85
2022/10/21 02:07:46;;;;;;;20.85;12.25;;;;;;;12.56;100.00;100486.06;6191658;23;20032;-85
2022/10/21 02:10:12;;;;;;;20.58;12.60;;;;;;;12.57;100.00;100490.47;6217354;23;20013;-86
2022/10/21 02:12:41;;;;;;;20.37;12.17;;;;;;;12.59;100.00;100488.31;6191970;23;20379;-85
2022/10/21 02:15:09;;;;;;;25.40;12.20;;;;;;;12.58;100.00;100481.25;6190636;23;20059;-86
2022/10/21 02:17:38;;;;;;;20.85;11.43;;;;;;;12.49;100.00;100464.44;6190877;23;20005;-86
2022/10/21 02:20:08;;;;;;;22.08;11.73;;;;;;;12.52;100.00;100474.84;6190866;23;20095;-86
2022/10/21 02:22:40;;;;;;;21.92;12.13;;;;;;;12.48;100.00;100470.13;6190880;23;20004;-86
2022/10/21 02:25:14;;;;;;;21.77;11.83;;;;;;;12.55;100.00;100470.81;6217236;23;20008;-86
2022/10/21 02:27:40;;;;;;;20.83;11.73;;;;;;;12.47;100.00;100461.13;6191263;23;20012;-86
2022/10/21 02:30:09;;;;;;;22.33;11.70;;;;;;;12.52;100.00;100466.69;6217051;23;20009;-86
2022/10/21 02:32:44;;;;;;;23.50;12.13;;;;;;;12.54;100.00;100475.44;6190174;23;20247;-86
2022/10/21 02:35:28;;;;;;;27.75;11.60;;;;;;;12.55;100.00;100487.13;6190876;23;20040;-86
2022/10/21 02:38:04;;;;;;;22.83;11.32;;;;;;;12.55;100.00;100484.41;6190815;23;20032;-86
2022/10/21 02:40:48;;;;;;;19.75;11.50;;;;;;;12.55;100.00;100477.09;6190878;23;20079;-85
2022/10/21 02:43:26;;;;;;;22.77;11.38;;;;;;;12.52;100.00;100479.44;6217585;23;20031;-86
2022/10/21 02:46:07;;;;;;;18.30;10.97;;;;;;;12.53;100.00;100486.56;6190994;23;20013;-86
2022/10/21 02:48:34;;;;;;;21.90;10.48;;;;;;;12.53;100.00;100478.38;6217237;23;20444;-86
2022/10/21 02:51:01;;;;;;;17.85;10.38;;;;;;;12.47;100.00;100466.56;6190817;23;20012;-86
2022/10/21 02:53:27;;;;;;;21.63;10.48;;;;;;;12.42;100.00;100459.13;6190653;23;20323;-85
2022/10/21 02:55:52;;;;;;;20.13;10.00;;;;;;;12.43;100.00;100458.06;6165969;23;20008;-85
2022/10/21 02:58:17;;;;;;;18.93;10.17;;;;;;;12.35;100.00;100457.59;6190978;23;20135;-85
2022/10/21 03:00:43;;;;;;;21.23;10.27;;;;;;;12.34;100.00;100448.59;6166240;23;20017;-86
2022/10/21 03:03:08;;;;;;;20.40;10.20;;;;;;;12.34;100.00;100456.75;6164599;23;20023;-85
2022/10/21 03:05:33;;;;;;;15.68;9.57;;;;;;;12.34;100.00;100450.47;6216936;23;20039;-85
2022/10/21 03:07:59;;;;;;;17.13;10.00;;;;;;;12.33;100.00;100460.53;6216732;23;20004;-86
2022/10/21 03:10:24;;;;;;;19.97;10.10;;;;;;;12.26;100.00;100451.66;6190487;23;20390;-86
2022/10/21 03:12:50;;;;;;;17.80;10.20;;;;;;;12.27;100.00;100450.63;6165384;23;20321;-86
2022/10/21 03:15:18;;;;;;;17.95;9.30;;;;;;;12.22;100.00;100447.75;6190549;23;20335;-86
2022/10/21 03:17:45;;;;;;;15.47;9.33;;;;;;;12.20;100.00;100449.91;6190214;23;20008;-85
2022/10/21 03:20:10;;;;;;;16.13;8.90;;;;;;;12.14;100.00;100446.22;6189909;23;20090;-85
2022/10/21 03:22:35;;;;;;;22.50;9.63;;;;;;;12.23;100.00;100463.03;6190545;23;20009;-85
2022/10/21 03:25:01;;;;;;;18.02;9.57;;;;;;;12.19;100.00;100464.56;6189923;23;20015;-86
2022/10/21 03:27:26;;;;;;;21.73;9.77;;;;;;;12.16;100.00;100463.13;6190442;23;20009;-86
2022/10/21 03:29:52;;;;;;;18.37;9.13;;;;;;;12.18;100.00;100473.75;6165807;23;20091;-86
2022/10/21 03:32:17;;;;;;;18.83;9.10;;;;;;;12.16;100.00;100467.75;6189528;23;20001;-86
2022/10/21 03:34:43;;;;;;;16.33;8.90;;;;;;;12.15;100.00;100461.50;6190324;23;20018;-85
2022/10/21 03:37:08;;;;;;;19.47;9.57;;;;;;;12.14;100.00;100465.25;6165395;23;20243;-85
2022/10/21 03:39:33;;;;;;;19.47;8.87;;;;;;;12.10;100.00;100455.91;6190226;23;20008;-86
2022/10/21 03:41:59;;;;;;;15.73;8.87;;;;;;;12.08;100.00;100460.75;6190768;23;20319;-86
2022/10/21 03:44:24;;;;;;;18.23;8.33;;;;;;;12.02;100.00;100448.13;6190164;23;20388;-85
2022/10/21 03:46:50;;;;;;;18.80;8.87;;;;;;;11.98;100.00;100455.06;6216666;23;20415;-86
2022/10/21 03:49:15;;;;;;;17.43;8.67;;;;;;;11.94;100.00;100446.53;6216744;23;20230;-85
2022/10/21 03:51:40;;;;;;;14.53;8.53;;;;;;;11.92;100.00;100438.59;6189905;23;20366;-85
2022/10/21 03:54:06;;;;;;;18.77;8.87;;;;;;;11.91;100.00;100441.53;6190060;23;20011;-86
2022/10/21 03:56:31;;;;;;;16.30;8.07;;;;;;;11.95;100.00;100452.84;6190120;23;20475;-85
2022/10/21 03:58:57;;;;;;;13.73;8.17;;;;;;;11.95;100.00;100447.38;6165173;23;20009;-85
2022/10/21 04:01:22;;;;;;;20.87;8.53;;;;;;;11.88;100.00;100431.97;6189987;23;20013;-86
2022/10/21 04:03:48;;;;;;;18.50;8.53;;;;;;;11.90;100.00;100448.06;6189207;23;20032;-86
2022/10/21 04:06:13;;;;;;;14.70;8.40;;;;;;;11.84;100.00;100448.97;6189601;23;20000;-85
2022/10/21 04:08:38;;;;;;;18.13;7.82;;;;;;;11.84;100.00;100460.69;6189911;23;20055;-85
2022/10/21 04:11:04;;;;;;;15.93;7.77;;;;;;;11.83;100.00;100460.94;6190009;23;20431;-86
2022/10/21 04:13:30;;;;;;;14.63;7.43;;;;;;;11.79;100.00;100454.28;6189506;23;20071;-86
2022/10/21 04:16:04;;;;;;;14.57;7.70;;;;;;;11.75;100.00;100454.78;6165115;23;20036;-85
2022/10/21 04:18:30;;;;;;;15.52;7.32;;;;;;;11.77;100.00;100463.50;6189933;23;20005;-86
2022/10/21 04:20:55;;;;;;;14.30;7.37;;;;;;;11.71;100.00;100441.88;6165057;23;20009;-85
2022/10/21 04:23:21;;;;;;;16.00;7.20;;;;;;;11.78;100.00;100448.03;6190002;23;20019;-86
2022/10/21 04:25:49;;;;;;;12.85;7.13;;;;;;;11.75;100.00;100443.91;6216417;23;20004;-85
2022/10/21 04:28:14;;;;;;;14.07;6.60;;;;;;;11.79;100.00;100452.41;6164824;23;20009;-85
2022/10/21 04:30:40;;;;;;;13.47;5.97;;;;;;;11.70;100.00;100440.22;6190210;23;20026;-85
2022/10/21 04:33:05;;;;;;;11.73;6.40;;;;;;;11.69;100.00;100450.28;6188908;23;20096;-85
2022/10/21 04:35:30;;;;;;;12.17;6.43;;;;;;;11.70;100.00;100451.09;6189637;23;20000;-85
2022/10/21 04:37:56;;;;;;;15.27;6.70;;;;;;;11.75;100.00;100462.06;6189672;23;20392;-85
2022/10/21 04:40:21;;;;;;;13.60;6.20;;;;;;;11.72;100.00;100460.66;6189671;23;20239;-85
2022/10/21 04:42:50;;;;;;;16.70;6.03;;;;;;;11.72;100.00;100468.81;6216202;23;20000;-85
2022/10/21 04:45:16;;;;;;;15.40;6.30;;;;;;;11.67;100.00;100465.97;6189805;23;20009;-85
2022/10/21 04:47:45;;;;;;;15.85;6.50;;;;;;;11.70;100.00;100470.09;6216223;23;20195;-85
2022/10/21 04:50:10;;;;;;;9.68;5.95;;;;;;;11.64;100.00;100465.59;6189599;23;20022;-85
2022/10/21 04:52:38;;;;;;;11.93;5.97;;;;;;;11.61;100.00;100449.78;6216158;23;20479;-85
2022/10/21 04:55:04;;;;;;;8.95;5.43;;;;;;;11.59;100.00;100445.38;6216252;23;20027;-85
2022/10/21 04:57:30;;;;;;;11.53;5.60;;;;;;;11.65;100.00;100459.94;6189598;23;20470;-85
2022/10/21 04:59:55;;;;;;;11.95;5.88;;;;;;;11.67;100.00;100457.81;6189471;23;20011;-85
2022/10/21 05:02:21;;;;;;;10.37;5.40;;;;;;;11.72;100.00;100457.09;6188693;23;20027;-85
2022/10/21 05:04:49;;;;;;;13.18;5.32;;;;;;;11.67;100.00;100446.94;6190412;23;20362;-85
2022/10/21 05:07:15;;;;;;;13.40;5.18;;;;;;;11.72;100.00;100449.81;6189719;23;20063;-85
2022/10/21 05:09:40;;;;;;;13.13;5.07;;;;;;;11.68;100.00;100443.16;6164734;23;20051;-86
2022/10/21 05:12:06;;;;;;;7.83;4.73;;;;;;;11.70;100.00;100449.19;6215854;23;20013;-85
2022/10/21 05:14:31;;;;;;;8.80;4.23;;;;;;;11.70;100.00;100443.75;6189473;23;20001;-85
2022/10/21 05:16:57;;;;;;;8.40;4.20;;;;;;;11.75;100.00;100454.78;6189129;23;20009;-85
2022/10/21 05:19:22;;;;;;;10.27;4.50;;;;;;;11.70;100.00;100441.03;6189579;23;20024;-86
2022/10/21 05:21:47;;;;;;;9.93;4.30;;;;;;;11.79;100.00;100457.03;6188985;23;20095;-85
2022/10/21 05:24:14;;;;;;;9.47;4.37;;;;;;;11.75;100.00;100440.31;6165756;23;20008;-85
2022/10/21 05:26:39;;;;;;;7.32;4.38;;;;;;;11.73;100.00;100437.84;6191133;23;20453;-85
2022/10/21 05:29:05;;;;;;;8.57;4.00;;;;;;;11.81;100.00;100442.13;6191196;23;20016;-85
2022/10/21 05:31:30;;;;;;;9.10;3.87;;;;;;;11.74;100.00;100428.63;6166542;23;20443;-85
2022/10/21 05:33:56;;;;;;;8.07;4.07;;;;;;;11.81;100.00;100444.00;6166089;23;20020;-85
2022/10/21 05:36:21;;;;;;;7.93;4.13;;;;;;;11.80;100.00;100429.59;6191182;23;20099;-85
2022/10/21 05:38:47;;;;;;;11.70;3.70;;;;;;;11.80;100.00;100418.72;6191237;23;20016;-85
2022/10/21 05:41:15;;;;;;;10.63;3.77;;;;;;;11.80;100.00;100421.44;6217357;23;20255;-85
2022/10/21 05:43:41;;;;;;;7.55;3.97;;;;;;;11.82;100.00;100419.31;6166445;23;20008;-85
2022/10/21 05:46:07;;;;;;;8.30;3.90;;;;;;;11.80;100.00;100420.63;6217493;23;20328;-84
2022/10/21 05:48:33;;;;;;;10.73;3.80;;;;;;;11.82;100.00;100410.34;6191348;23;20415;-83
2022/10/21 05:50:59;;;;;;;9.53;4.03;;;;;;;11.85;100.00;100416.13;6217335;23;20008;-84
2022/10/21 05:53:24;;;;;;;9.07;3.80;;;;;;;11.83;100.00;100409.28;6191091;23;20522;-84
2022/10/21 05:55:57;;;;;;;8.82;3.60;;;;;;;11.83;100.00;100409.28;6191117;23;20099;-84
2022/10/21 05:58:23;;;;;;;10.32;4.13;;;;;;;11.84;100.00;100421.78;6217635;23;20000;-83
2022/10/21 06:00:53;;;;;;;5.07;3.20;;;;;;;11.78;100.00;100404.56;6190989;23;20004;-84
2022/10/21 06:03:23;;;;;;;6.18;3.67;;;;;;;11.88;100.00;100417.56;6217180;23;20016;-84
2022/10/21 06:05:49;;;;;;;12.00;3.78;;;;;;;11.88;100.00;100420.28;6217511;23;20047;-84
2022/10/21 06:08:15;;;;;;;9.98;3.67;;;;;;;11.87;100.00;100415.88;6190841;23;20054;-84
2022/10/21 06:10:40;;;;;;;9.37;3.37;;;;;;;11.89;100.00;100414.59;6190585;23;20394;-84
2022/10/21 06:13:05;;;;;;;8.03;3.50;;;;;;;11.91;100.00;100420.66;6190799;23;20375;-85
2022/10/21 06:15:31;;;;;;;12.20;3.60;;;;;;;11.93;100.00;100417.72;6141279;23;20260;-85
2022/10/21 06:17:56;;;;;;;9.33;3.20;;;;;;;11.95;100.00;100412.88;6190773;23;20062;-84
2022/10/21 06:20:22;;;;;;;6.93;3.07;;;;;;;11.95;100.00;100409.34;6166147;23;20059;-84
2022/10/21 06:22:47;;;;;;;10.50;3.70;;;;;;;11.96;100.00;100408.25;6165708;23;20005;-85
2022/10/21 06:25:12;;;;;;;8.40;3.13;;;;;;;11.97;100.00;100404.47;6190321;23;20092;-84
2022/10/21 06:27:38;;;;;;;5.60;2.83;;;;;;;11.95;100.00;100404.72;6190194;23;20061;-84
2022/10/21 06:30:04;;;;;;;6.93;2.87;;;;;;;11.96;100.00;100408.25;6217175;23;20019;-84
2022/10/21 06:32:31;;;;;;;12.73;3.65;;;;;;;12.00;100.00;100404.00;6216854;23;20004;-84
2022/10/21 06:34:57;;;;;;;6.28;3.25;;;;;;;11.99;100.00;100402.34;6190403;23;20107;-84
2022/10/21 06:37:22;;;;;;;5.07;2.97;;;;;;;12.02;100.00;100413.59;6190279;23;20083;-84
2022/10/21 06:39:47;;;;;;;5.73;2.83;;;;;;;12.01;100.00;100417.34;6190524;23;20009;-84
2022/10/21 06:42:14;;;;;;;8.13;3.43;;;;;;;12.04;100.00;100425.03;6217469;23;20080;-84
2022/10/21 06:44:40;;;;;;;8.57;3.08;;;;;;;12.09;100.00;100427.06;6190478;23;20013;-83
2022/10/21 06:47:06;;;;;;;7.57;3.13;;;;;;;12.12;100.00;100434.75;6165846;23;20035;-84
2022/10/21 06:49:31;;;;;;;8.20;2.73;;;;;;;12.15;100.00;100434.28;6190501;23;20768;-86
2022/10/21 06:51:57;;;;;;;5.45;3.22;;;;;;;12.21;100.00;100435.22;6190810;23;20087;-85
2022/10/21 06:54:22;;;;;;;10.73;3.73;;;;;;;12.25;100.00;100450.84;6190720;23;20143;-84
2022/10/21 06:56:48;;;;;;;9.43;2.97;;;;;;;12.33;100.00;100446.94;6165824;23;20020;-85
2022/10/21 06:59:16;;;;;;;8.47;2.80;;;;;;;12.39;100.00;100450.59;6190488;23;20012;-85
2022/10/21 07:01:41;;;;;;;7.45;2.85;;;;;;;12.44;100.00;100454.25;6165792;23;20092;-85
2022/10/21 07:04:08;;;;;;;8.30;3.40;;;;;;;12.53;100.00;100456.63;6189641;23;20388;-85
2022/10/21 07:06:33;;;;;;;4.93;2.70;;;;;;;12.62;100.00;100463.34;6216673;23;20236;-85
2022/10/21 07:08:59;;;;;;;6.18;2.63;;;;;;;12.74;100.00;100471.50;6190469;23;20008;-85
2022/10/21 07:11:25;;;;;;;10.03;2.63;;;;;;;12.79;100.00;100477.06;6189947;23;20007;-85
2022/10/21 07:13:51;;;;;;;9.32;2.90;;;;;;;12.85;100.00;100476.09;6191214;23;20085;-85
2022/10/21 07:16:25;;;;;;;7.83;2.77;;;;;;;12.90;100.00;100483.56;6216893;23;20028;-85
2022/10/21 07:18:51;;;;;;;6.22;2.70;;;;;;;12.90;100.00;100478.09;6190278;23;20016;-85
2022/10/21 07:21:19;;;;;;;4.97;2.60;;;;;;;12.99;100.00;100482.94;6216634;23;20009;-85
2022/10/21 07:23:47;;;;;;;4.55;2.42;;;;;;;13.02;100.00;100475.34;6189853;23;20005;-85
2022/10/21 07:26:20;;;;;;;6.13;2.40;;;;;;;13.11;100.00;100474.75;6189960;23;20005;-85
2022/10/21 07:28:46;;;;;;;5.80;1.95;;;;;;;13.24;100.00;100487.28;6190069;23;20366;-85
2022/10/21 07:31:20;;;;;;;7.82;2.55;;;;;;;13.33;100.00;100484.97;6217119;23;20328;-85
2022/10/21 07:33:45;;;;;;;12.27;2.80;;;;;;;13.41;100.00;100484.63;6189710;23;20031;-85
2022/10/21 07:36:14;;;;;;;10.00;2.88;;;;;;;13.49;100.00;100484.25;6190120;23;20423;-85
2022/10/21 07:38:45;;;;;;;5.63;2.45;;;;;;;13.61;100.00;100491.53;6189979;23;20020;-85
2022/10/21 07:41:36;;;;;;;7.07;2.60;;;;;;;13.70;100.00;100506.44;6189918;23;20001;-85
2022/10/21 07:44:02;;;;;;;7.25;2.50;;;;;;;13.73;100.00;100494.19;6216644;23;20084;-85
2022/10/21 07:46:28;;;;;;;5.45;2.20;;;;;;;13.76;100.00;100501.88;6189783;23;20001;-85
2022/10/21 07:48:54;;;;;;;5.43;2.80;;;;;;;13.77;100.00;100496.19;6140365;23;20038;-85
2022/10/21 07:51:22;;;;;;;9.90;2.83;;;;;;;13.80;100.00;100506.63;6189814;23;20012;-85
2022/10/21 07:53:49;;;;;;;10.60;2.67;;;;;;;13.85;100.00;100503.97;6189807;23;20063;-85
2022/10/21 07:56:19;;;;;;;5.85;2.65;;;;;;;13.90;100.00;100510.59;6190089;23;20004;-85
2022/10/21 07:58:45;;;;;;;6.53;2.90;;;;;;;13.88;100.00;100516.28;6216357;23;20016;-85
2022/10/21 08:01:12;;;;;;;8.57;3.00;;;;;;;13.90;100.00;100505.13;6165102;23;20009;-85
2022/10/21 08:03:38;;;;;;;5.53;3.20;;;;;;;13.82;100.00;100499.00;6186410;23;20012;-85
2022/10/21 08:06:06;;;;;;;9.52;2.97;;;;;;;13.90;100.00;100513.31;6189820;23;20016;-85
2022/10/21 08:08:32;;;;;;;5.05;2.67;;;;;;;13.86;100.00;100505.63;6189847;23;20038;-85
2022/10/21 08:11:00;;;;;;;6.13;2.70;;;;;;;13.85;100.00;100500.44;6189581;23;20013;-85
2022/10/21 08:13:25;;;;;;;7.72;3.03;;;;;;;13.85;100.00;100503.97;6190778;23;20032;-85
2022/10/21 08:15:55;;;;;;;9.17;3.40;;;;;;;13.80;100.00;100494.88;6189795;23;20008;-85
2022/10/21 08:18:21;;;;;;;8.37;3.10;;;;;;;13.81;100.00;100502.81;6216119;23;20307;-86
2022/10/21 08:21:03;;;;;;;11.93;3.80;;;;;;;13.80;100.00;100497.59;6189187;23;20029;-86
2022/10/21 08:23:29;;;;;;;7.15;3.05;;;;;;;13.75;100.00;100495.59;6216342;23;20074;-86
2022/10/21 08:25:57;;;;;;;7.95;3.13;;;;;;;13.67;100.00;100506.91;6215948;23;20567;-86
2022/10/21 08:28:25;;;;;;;9.97;3.43;;;;;;;13.65;100.00;100511.78;6190016;23;20004;-86
2022/10/21 08:34:27;;;;;;;7.97;2.97;;;;;;;13.71;100.00;100515.44;6215944;23;20004;-86
2022/10/21 08:36:52;;;;;;;8.02;3.58;;;;;;;13.69;100.00;100524.66;6165195;23;20009;-86
2022/10/21 08:39:20;;;;;;;10.30;3.40;;;;;;;13.64;100.00;100513.69;6215946;23;20005;-86
2022/10/21 08:45:12;;;;;;;9.38;3.58;;;;;;;13.60;100.00;100525.31;6216187;23;20020;-86
2022/10/21 08:47:45;;;;;;;7.67;3.63;;;;;;;13.54;100.00;100521.66;6216573;23;20080;-86
2022/10/21 08:50:46;;;;;;;7.60;3.70;;;;;;;13.54;100.00;100534.44;6189585;23;20494;-86
2022/10/21 08:53:19;;;;;;;7.97;3.90;;;;;;;13.48;100.00;100531.63;6173148;23;20012;-86
2022/10/21 08:55:45;;;;;;;10.35;3.92;;;;;;;13.41;100.00;100528.22;6188578;23;20005;-87
2022/10/21 08:58:31;;;;;;;10.05;3.85;;;;;;;13.31;100.00;100544.34;6216051;23;20004;-87
2022/10/21 09:01:43;;;;;;;;;;;;;;;;;;;;;
2022/10/21 09:04:22;;;;;;;11.57;3.97;;;;;;;13.26;100.00;100545.06;6217714;23;20092;-87
2022/10/21 09:07:21;;;;;;;;;;;;;;;;;;;;;
2022/10/21 09:10:14;;;;;;;8.45;4.10;;;;;;;13.26;100.00;100555.13;6218086;23;20088;-87
2022/10/21 09:13:07;;;;;;;11.32;4.55;;;;;;;13.28;100.00;100555.72;6191601;23;20082;-89
2022/10/21 09:16:07;;;;;;;12.67;4.17;;;;;;;13.27;100.00;100552.19;6191483;23;20015;-88
2022/10/21 09:18:59;;;;;;;8.50;2.30;;;;;;;13.31;100.00;100525.25;6191183;23;20451;-89
2022/10/21 09:22:05;;;;;;;4.18;1.77;;;;;;;13.43;100.00;100527.97;6191165;23;20138;-89
2022/10/21 09:24:57;;;;;;;7.13;2.13;;;;;;;13.56;100.00;100541.31;6191525;23;20005;-88
2022/10/21 09:27:31;;;;;;;4.10;1.70;;;;;;;13.66;100.00;100533.34;6218007;23;20035;-89
2022/10/21 09:30:13;;;;;;;3.67;1.53;;;;;;;13.76;100.00;100538.16;6166859;23;20016;-88
2022/10/21 09:32:40;;;;;;;4.53;1.42;;;;;;;13.84;100.00;100535.03;6191311;23;20008;-89
2022/10/21 09:35:42;;;;;;;4.55;1.65;;;;;;;14.02;100.00;100541.34;6191234;23;20001;-89
2022/10/21 09:38:26;;;;;;;8.73;2.00;;;;;;;14.13;100.00;100540.47;6217865;23;20071;-89
2022/10/21 09:41:01;;;;;;;5.97;2.10;;;;;;;14.22;100.00;100532.69;6166720;23;20415;-89
2022/10/21 09:43:28;;;;;;;7.97;2.10;;;;;;;14.28;100.00;100522.69;6191664;23;20431;-89
2022/10/21 09:45:54;;;;;;;4.85;2.30;;;;;;;14.32;100.00;100523.84;6190557;23;20010;-89
2022/10/21 09:48:31;;;;;;;3.88;1.85;;;;;;;14.41;100.00;100535.16;6190720;23;20091;-89
2022/10/21 09:51:15;;;;;;;6.03;2.58;;;;;;;14.47;100.00;100532.28;6191930;23;20009;-89
2022/10/21 09:53:49;;;;;;;7.18;3.10;;;;;;;14.61;100.00;100537.41;6191327;23;20008;-89
2022/10/21 09:56:39;;;;;;;5.60;2.97;;;;;;;14.68;100.00;100538.09;6190965;23;20027;-89
2022/10/21 09:59:30;;;;;;;10.00;3.75;;;;;;;14.77;100.00;100552.97;6174376;23;20091;-89
2022/10/21 10:02:30;;;;;;;;;;;;;;;;;;;;;
2022/10/21 10:05:08;;;;;;;;;;;;;;;;;;;;;
2022/10/21 10:08:01;;;;;;;7.95;3.05;;;;;;;14.78;100.00;100534.66;6218564;23;20360;-91
2022/10/21 10:10:37;;;;;;;7.23;3.13;;;;;;;14.82;100.00;100536.66;6217754;23;20435;-90
2022/10/21 10:13:15;;;;;;;;;;;;;;;;;;;;;
2022/10/21 10:15:43;;;;;;;8.00;3.67;;;;;;;15.00;100.00;100537.41;6218461;23;20365;-90
2022/10/21 10:18:22;;;;;;;9.68;4.00;;;;;;;15.05;100.00;100551.16;6191238;23;20011;-90
2022/10/21 10:21:11;;;;;;;11.73;3.70;;;;;;;15.19;100.00;100560.66;6190238;23;20012;-90
2022/10/21 10:24:00;;;;;;;14.97;3.97;;;;;;;15.29;100.00;100551.75;6217552;23;20087;-90
2022/10/21 10:26:42;;;;;;;9.32;4.18;;;;;;;15.49;100.00;100551.19;6191288;23;20005;-90
2022/10/21 10:32:23;;;;;;;;;;;;;;;;;;;;;
2022/10/21 10:35:04;;;;;;;18.55;5.55;;;;;;;16.18;100.00;100548.88;6217205;23;20086;-89
2022/10/21 10:38:30;;;;;;;9.03;4.93;;;;;;;16.46;100.00;100542.28;6101389;23;20010;-89
2022/10/21 10:44:48;;;;;;;11.70;4.57;;;;;;;16.73;100.00;100544.13;6216998;23;20050;-90
2022/10/21 10:51:06;;;;;;;12.15;4.43;;;;;;;17.00;100.00;100552.25;6125350;23;20388;-89
2022/10/21 11:00:41;;;;;;;7.05;3.58;;;;;;;19.26;99.48;100549.75;6124996;23;20036;-88
2022/10/21 11:03:14;;;;;;;9.60;3.35;;;;;;;20.04;93.13;100549.38;6121353;23;20468;-88
2022/10/21 11:05:50;;;;;;;9.55;4.20;;;;;;;19.75;93.17;100539.91;6124950;23;20089;-88
2022/10/21 11:29:35;;;;;;;6.15;2.58;;;;;;;25.08;70.94;100535.13;6215917;23;20023;-87
2022/10/21 11:35:36;;;;;;;3.47;2.25;;;;;;;27.54;54.90;100544.84;6216679;23;20019;-87
2022/10/21 11:38:28;;;;;;;6.32;2.78;;;;;;;28.62;59.62;100532.13;6216767;23;20027;-87
2022/10/21 11:41:00;;;;;;;3.70;1.87;;;;;;;29.05;49.01;100528.00;6216454;23;20008;-87
2022/10/21 11:43:55;;;;;;;3.42;1.88;;;;;;;29.67;53.29;100522.34;6216648;23;20011;-87
2022/10/21 11:50:41;;;;;;;5.93;2.10;;;;;;;29.56;51.25;100521.22;6154884;23;20541;-88
2022/10/21 11:53:31;;;;;;;6.90;1.73;;;;;;;27.39;49.71;100520.38;6128997;23;20092;-87
2022/10/21 11:56:04;;;;;;;2.80;1.40;;;;;;;26.90;49.25;100515.19;6129405;23;20360;-86
2022/10/21 11:58:35;;;;;;;5.05;1.50;;;;;;;26.14;51.99;100505.59;6129042;23;20104;-87
2022/10/21 12:01:15;;;;;;;4.50;1.23;;;;;;;25.49;54.51;100508.16;6128815;23;20479;-87
2022/10/21 12:04:19;;;;;;;3.53;1.23;;;;;;;25.18;56.48;100518.19;6129193;23;20049;-87
2022/10/21 12:13:44;;;;;;;4.72;1.38;;;;;;;24.32;58.47;100516.63;6153880;23;20037;-86
2022/10/21 12:16:16;;;;;;;1.67;1.05;;;;;;;24.81;56.45;100500.94;6153778;23;20471;-87
2022/10/21 12:18:52;;;;;;;2.17;1.20;;;;;;;25.27;53.76;100506.31;6129953;23;20411;-86
2022/10/21 12:21:22;;;;;;;1.77;1.10;;;;;;;24.84;54.97;100496.69;6213585;23;20008;-87
2022/10/21 12:23:57;;;;;;;1.83;0.90;;;;;;;25.45;55.00;100482.19;6189779;23;20335;-86
2022/10/21 12:26:27;;;;;;;2.28;1.20;;;;;;;25.70;52.16;100494.44;6189595;23;20443;-87
2022/10/21 12:29:41;;;;;;;5.00;1.30;;;;;;;25.48;55.76;100504.59;6189674;23;20430;-87
2022/10/21 12:32:55;;;;;;;2.88;1.17;;;;;;;26.55;52.55;100493.88;6189601;23;20008;-87
2022/10/21 12:35:27;;;;;;;2.08;1.13;;;;;;;26.02;50.10;100509.03;6163893;23;20004;-87
2022/10/21 12:37:52;;;;;;;1.43;1.10;;;;;;;25.27;52.47;100511.84;6190080;23;20044;-87
2022/10/21 12:40:24;;;;;;;2.77;1.10;;;;;;;24.51;53.62;100517.25;6189669;23;20005;-87